sensor_id;sensor_type;location;lat;lon;timestamp;P1;P2;P0
68198;PMS7003;55021;51.554;17.044;2023-03-01T00:03:41;109.67;80.67;49.67
68198;PMS7003;55021;51.554;17.044;2023-03-01T00:18:44;105.33;81.00;49.33
68198;PMS7003;55021;51.554;17.044;2023-03-01T00:33:47;102.67;79.33;49.33
68198;PMS7003;55021;51.554;17.044;2023-03-01T00:48:49;112.33;80.00;49.33
68198;PMS7003;55021;51.554;17.044;2023-03-01T01:03:52;118.00;86.33;53.33
68198;PMS7003;55021;51.554;17.044;2023-03-01T01:18:56;110.00;80.67;50.00
68198;PMS7003;55021;51.554;17.044;2023-03-01T01:34:00;126.67;88.00;53.67
68198;PMS7003;55021;51.554;17.044;2023-03-01T01:49:05;109.33;83.00;50.33
68198;PMS7003;55021;51.554;17.044;2023-03-01T02:04:16;107.00;77.67;47.67
68198;PMS7003;55021;51.554;17.044;2023-03-01T02:19:24;111.67;85.33;52.00
68198;PMS7003;55021;51.554;17.044;2023-03-01T02:34:34;117.67;86.67;52.00
68198;PMS7003;55021;51.554;17.044;2023-03-01T02:49:39;120.00;82.00;50.00
68198;PMS7003;55021;51.554;17.044;2023-03-01T03:19:47;111.00;84.00;52.67
68198;PMS7003;55021;51.554;17.044;2023-03-01T03:34:50;114.67;85.67;51.67
68198;PMS7003;55021;51.554;17.044;2023-03-01T03:49:55;111.33;83.00;50.00
68198;PMS7003;55021;51.554;17.044;2023-03-01T04:04:58;107.67;80.00;50.00
68198;PMS7003;55021;51.554;17.044;2023-03-01T04:20:01;107.67;78.33;47.33
68198;PMS7003;55021;51.554;17.044;2023-03-01T04:35:03;112.33;87.33;53.00
68198;PMS7003;55021;51.554;17.044;2023-03-01T04:50:06;108.33;81.00;52.00
68198;PMS7003;55021;51.554;17.044;2023-03-01T05:05:10;119.00;87.00;55.33
68198;PMS7003;55021;51.554;17.044;2023-03-01T05:20:13;119.00;90.33;55.00
68198;PMS7003;55021;51.554;17.044;2023-03-01T05:35:16;124.33;88.67;55.00
68198;PMS7003;55021;51.554;17.044;2023-03-01T05:50:20;101.33;81.00;49.33
68198;PMS7003;55021;51.554;17.044;2023-03-01T06:05:29;101.67;79.33;48.67
68198;PMS7003;55021;51.554;17.044;2023-03-01T06:36:37;109.00;83.00;52.67
68198;PMS7003;55021;51.554;17.044;2023-03-01T06:51:55;115.67;85.00;53.33
68198;PMS7003;55021;51.554;17.044;2023-03-01T07:06:57;102.00;76.33;47.33
68198;PMS7003;55021;51.554;17.044;2023-03-01T07:22:00;110.00;84.00;52.00
68198;PMS7003;55021;51.554;17.044;2023-03-01T07:37:03;131.00;109.00;65.00
68198;PMS7003;55021;51.554;17.044;2023-03-01T07:52:05;110.00;83.00;51.33
68198;PMS7003;55021;51.554;17.044;2023-03-01T08:07:08;128.67;102.00;62.67
68198;PMS7003;55021;51.554;17.044;2023-03-01T08:22:10;103.67;73.00;46.33
68198;PMS7003;55021;51.554;17.044;2023-03-01T08:37:14;103.00;77.33;49.67
68198;PMS7003;55021;51.554;17.044;2023-03-01T08:52:16;93.00;70.67;42.67
68198;PMS7003;55021;51.554;17.044;2023-03-01T09:07:19;76.00;58.75;35.50
68198;PMS7003;55021;51.554;17.044;2023-03-01T09:22:22;76.00;56.50;33.50
68198;PMS7003;55021;51.554;17.044;2023-03-01T09:37:25;83.75;60.00;35.25
68198;PMS7003;55021;51.554;17.044;2023-03-01T09:52:32;72.25;51.25;32.25
68198;PMS7003;55021;51.554;17.044;2023-03-01T10:07:42;63.25;48.25;29.50
68198;PMS7003;55021;51.554;17.044;2023-03-01T10:22:51;69.00;53.50;32.00
68198;PMS7003;55021;51.554;17.044;2023-03-01T10:37:58;78.50;55.25;32.75
68198;PMS7003;55021;51.554;17.044;2023-03-01T10:53:15;46.00;36.75;20.50
68198;PMS7003;55021;51.554;17.044;2023-03-01T11:23:41;55.50;44.75;27.50
68198;PMS7003;55021;51.554;17.044;2023-03-01T11:38:47;43.00;35.50;16.75
68198;PMS7003;55021;51.554;17.044;2023-03-01T12:09:24;49.25;40.00;22.75
68198;PMS7003;55021;51.554;17.044;2023-03-01T12:24:48;49.50;38.50;24.00
68198;PMS7003;55021;51.554;17.044;2023-03-01T12:40:17;47.25;38.00;22.25
68198;PMS7003;55021;51.554;17.044;2023-03-01T12:55:39;54.00;41.50;22.50
68198;PMS7003;55021;51.554;17.044;2023-03-01T13:26:48;59.50;44.75;28.75
68198;PMS7003;55021;51.554;17.044;2023-03-01T13:42:50;43.75;36.75;20.25
68198;PMS7003;55021;51.554;17.044;2023-03-01T13:58:01;52.50;42.75;26.00
68198;PMS7003;55021;51.554;17.044;2023-03-01T14:13:32;45.25;35.00;20.75
68198;PMS7003;55021;51.554;17.044;2023-03-01T14:28:57;43.50;37.75;21.50
68198;PMS7003;55021;51.554;17.044;2023-03-01T14:44:02;40.75;34.50;22.75
68198;PMS7003;55021;51.554;17.044;2023-03-01T14:59:08;54.25;41.25;23.75
68198;PMS7003;55021;51.554;17.044;2023-03-01T15:29:30;37.00;31.25;18.25
68198;PMS7003;55021;51.554;17.044;2023-03-01T15:44:37;61.00;45.00;27.50
68198;PMS7003;55021;51.554;17.044;2023-03-01T16:00:32;72.00;53.75;32.50
68198;PMS7003;55021;51.554;17.044;2023-03-01T16:15:35;42.25;31.75;18.00
68198;PMS7003;55021;51.554;17.044;2023-03-01T16:30:45;37.25;31.75;17.75
68198;PMS7003;55021;51.554;17.044;2023-03-01T17:32:17;50.25;46.50;26.00
68198;PMS7003;55021;51.554;17.044;2023-03-01T17:47:36;39.75;33.75;17.00
68198;PMS7003;55021;51.554;17.044;2023-03-01T18:02:38;40.50;34.75;19.00
68198;PMS7003;55021;51.554;17.044;2023-03-01T18:17:41;40.75;32.00;18.75
68198;PMS7003;55021;51.554;17.044;2023-03-01T18:32:43;46.25;35.75;21.00
68198;PMS7003;55021;51.554;17.044;2023-03-01T18:47:46;52.50;43.50;25.75
68198;PMS7003;55021;51.554;17.044;2023-03-01T19:02:48;51.50;38.50;22.25
68198;PMS7003;55021;51.554;17.044;2023-03-01T19:17:51;58.25;47.50;28.00
68198;PMS7003;55021;51.554;17.044;2023-03-01T19:32:54;90.67;71.67;44.00
68198;PMS7003;55021;51.554;17.044;2023-03-01T19:47:56;125.00;93.67;56.67
68198;PMS7003;55021;51.554;17.044;2023-03-01T20:02:59;114.67;85.00;52.33
68198;PMS7003;55021;51.554;17.044;2023-03-01T20:18:01;115.00;86.00;54.33
68198;PMS7003;55021;51.554;17.044;2023-03-01T20:33:04;94.67;72.00;46.33
68198;PMS7003;55021;51.554;17.044;2023-03-01T20:48:07;102.00;72.33;44.00
68198;PMS7003;55021;51.554;17.044;2023-03-01T21:03:09;98.00;74.67;45.33
68198;PMS7003;55021;51.554;17.044;2023-03-01T21:18:12;93.67;71.67;44.67
68198;PMS7003;55021;51.554;17.044;2023-03-01T21:33:14;108.33;80.00;51.00
68198;PMS7003;55021;51.554;17.044;2023-03-01T21:48:17;109.00;81.00;51.67
68198;PMS7003;55021;51.554;17.044;2023-03-01T22:03:20;108.67;81.00;51.67
68198;PMS7003;55021;51.554;17.044;2023-03-01T22:18:23;112.00;83.33;52.00
68198;PMS7003;55021;51.554;17.044;2023-03-01T22:33:25;112.33;83.00;51.00
68198;PMS7003;55021;51.554;17.044;2023-03-01T22:48:27;113.00;82.33;50.67
68198;PMS7003;55021;51.554;17.044;2023-03-01T23:03:30;106.33;77.00;45.33
68198;PMS7003;55021;51.554;17.044;2023-03-01T23:18:33;90.33;70.00;42.33
68198;PMS7003;55021;51.554;17.044;2023-03-01T23:33:35;111.33;84.33;51.33
68198;PMS7003;55021;51.554;17.044;2023-03-01T23:48:38;112.67;82.00;51.33
